Tug Brendan J Bouchard — WCZ5207 — position and weather

sailwx.info

Track history (hours):
 
Tides and Currents Weather Stations Pressure Air Temp Water Temp Dewpoint Dewpoint Depression Visibility Wind Speed Wind Dir Waves Ship Positions

Tug Brendan J Bouchard

Owner: TUG BRENDAN J BOUCHARD CORP, MELVILLE, NY. More information available from US FCC via Universal Licensing System and Coast Guard Vessel Documentation Center.

Last reported at 2018-Jun-10 22:57 UTC. Time now 2018-Jun-20 05:13 UTC.
Position N 25°19' W 080°04'.
Warning: this ship's position is 9 days out of date.

Length 163 m; draft 7 m.

Type: . MMSI: 338631000.

Date/timePositionNaut miles runAvg speedWind from/ knotsBaromVisibWave heightAir tempDewpointWater temp
2018-Jun-10 22:57N 25°19' W 080°04'4 8.4
2018-Jun-10 22:26N 25°24' W 080°03'4 8.8
2018-Jun-10 22:00N 25°27' W 080°02'5 9.2
2018-Jun-10 21:30N 25°32' W 080°02'5 9.8
2018-Jun-10 21:00N 25°37' W 080°02'5 9.7
2018-Jun-10 20:30N 25°42' W 080°02'5 9.9
2018-Jun-10 20:00N 25°47' W 080°01'5 9.3
2018-Jun-10 19:30N 25°51' W 080°01'4 9.1
2018-Jun-10 19:01N 25°56' W 080°01'4 8.9
2018-Jun-10 18:31N 26°00' W 080°00'4 8.8
2018-Jun-10 18:01N 26°05' W 080°00'4 8.7
2018-Jun-10 17:30N 26°09' W 079°60'4 8.3
2018-Jun-10 17:01N 26°13' W 079°60'4 8.2
2018-Jun-10 16:31N 26°17' W 079°59'5 8.2
2018-Jun-10 15:56N 26°22' W 079°59'4 8.2
2018-Jun-10 15:29N 26°26' W 079°59'22 7.6
2018-Jun-10 12:39N 26°47' W 079°60'1 8.1
2018-Jun-10 12:30N 26°48' W 080°00'5 9.4
2018-Jun-10 12:00N 26°53' W 080°00'5 9.8
2018-Jun-10 11:30N 26°58' W 080°01'  
2018-Jun-08 01:52N 34°52' W 075°41'176 9.9
2018-Jun-07 07:57N 37°47' W 076°11'13 9.8
2018-Jun-07 06:38N 37°60' W 076°12'210.2
2018-Jun-07 06:28N 38°01' W 076°13'4610.0
2018-Jun-07 01:52N 38°46' W 076°26'410.2
2018-Jun-07 01:30N 38°50' W 076°26'510.4
2018-Jun-07 01:00N 38°55' W 076°24'510.7
2018-Jun-07 00:31N 38°60' W 076°23'510.3
2018-Jun-07 00:00N 39°05' W 076°24'510.5
2018-Jun-06 23:30N 39°10' W 076°26'510.0
2018-Jun-06 23:00N 39°13' W 076°31'2 4.7
2018-Jun-06 22:30N 39°15' W 076°33'0 0.1
2018-Jun-06 22:00N 39°15' W 076°33'0 0.0
2018-Jun-06 21:31N 39°15' W 076°33'0 0.0
2018-Jun-06 21:00N 39°15' W 076°33'0 0.0
2018-Jun-06 20:30N 39°15' W 076°33'0 0.0
2018-Jun-06 20:00N 39°15' W 076°33'0 0.0
2018-Jun-06 19:29N 39°15' W 076°33'0 0.0
2018-Jun-06 18:59N 39°15' W 076°33'0 0.0
2018-Jun-06 18:26N 39°15' W 076°33'0 0.0
2018-Jun-06 18:00N 39°15' W 076°33'0 0.0
2018-Jun-06 17:29N 39°15' W 076°33'1 2.7
2018-Jun-06 17:00N 39°13' W 076°33'1 1.8
2018-Jun-06 16:27N 39°14' W 076°34'0 0.0
2018-Jun-06 15:57N 39°14' W 076°34'0 0.0
2018-Jun-06 15:30N 39°14' W 076°34'0 0.0
2018-Jun-06 14:33N 39°14' W 076°34'0 0.0
2018-Jun-06 14:03N 39°14' W 076°34'0 0.0
2018-Jun-06 14:00N 39°14' W 076°34'0 0.0
2018-Jun-06 13:30N 39°14' W 076°34'0 0.0
2018-Jun-06 12:57N 39°14' W 076°34'0 0.0
2018-Jun-06 12:30N 39°14' W 076°34'0 0.0
2018-Jun-06 12:00N 39°14' W 076°34'0 0.0
2018-Jun-06 11:30N 39°14' W 076°34'1 2.7
2018-Jun-06 10:59N 39°14' W 076°33'1 1.4
2018-Jun-06 10:30N 39°15' W 076°34'2 3.5
2018-Jun-06 10:00N 39°16' W 076°34'0 0.0
2018-Jun-06 09:30N 39°16' W 076°34'0 0.0
2018-Jun-06 09:00N 39°16' W 076°34'0 0.0
2018-Jun-06 08:30N 39°16' W 076°34'0 0.0
2018-Jun-06 08:00N 39°16' W 076°34'0 0.0
2018-Jun-06 07:30N 39°16' W 076°34'0 0.0
2018-Jun-06 07:00N 39°16' W 076°34'0 0.0
2018-Jun-06 06:30N 39°16' W 076°34'0 0.0
2018-Jun-06 06:00N 39°16' W 076°34'0 0.0
2018-Jun-06 05:30N 39°16' W 076°34'0 0.0
2018-Jun-06 05:00N 39°16' W 076°34'0 0.0
2018-Jun-06 04:30N 39°16' W 076°34'0 0.0
2018-Jun-06 04:00N 39°16' W 076°34'0 0.0
2018-Jun-06 03:30N 39°16' W 076°34'0 0.0
2018-Jun-06 03:00N 39°16' W 076°34'0 0.0
2018-Jun-06 02:30N 39°16' W 076°34'0 0.0
2018-Jun-06 02:00N 39°16' W 076°34'0 0.0
2018-Jun-06 01:30N 39°16' W 076°34'0 0.0
2018-Jun-06 01:00N 39°16' W 076°34'0 0.0
2018-Jun-06 00:30N 39°16' W 076°34'0 0.0
2018-Jun-06 00:00N 39°16' W 076°34'0 0.0
2018-Jun-05 23:30N 39°16' W 076°34'0 0.0
2018-Jun-05 23:00N 39°16' W 076°34'0 0.0
2018-Jun-05 22:30N 39°16' W 076°34'0 0.0
2018-Jun-05 22:00N 39°16' W 076°34'0 0.0
2018-Jun-05 21:30N 39°16' W 076°34'0 0.0
2018-Jun-05 21:00N 39°16' W 076°34'0 0.0
2018-Jun-05 20:30N 39°16' W 076°34'0 0.0
2018-Jun-05 20:00N 39°16' W 076°34'0 0.0
2018-Jun-05 19:30N 39°16' W 076°34'0 0.0
2018-Jun-05 19:00N 39°16' W 076°34'0 0.0
2018-Jun-05 18:30N 39°16' W 076°34'0 0.0
2018-Jun-05 18:00N 39°16' W 076°34'0 0.0
2018-Jun-05 17:30N 39°16' W 076°34'0 0.0
2018-Jun-05 17:00N 39°16' W 076°34'0 0.0
2018-Jun-05 16:30N 39°16' W 076°34'0 0.0
2018-Jun-05 16:00N 39°16' W 076°34'0 0.0
2018-Jun-05 15:30N 39°16' W 076°34'0 0.0
2018-Jun-05 15:00N 39°16' W 076°34'0 0.0
2018-Jun-05 14:30N 39°16' W 076°34'0 0.0
2018-Jun-05 14:00N 39°16' W 076°34'0 0.0
2018-Jun-05 13:30N 39°16' W 076°34'0 0.0
2018-Jun-05 13:00N 39°16' W 076°34'0 0.0
2018-Jun-05 12:30N 39°16' W 076°34'0 0.0
2018-Jun-05 12:00N 39°16' W 076°34'0 0.0
2018-Jun-05 11:30N 39°16' W 076°34'0 0.0
2018-Jun-05 11:00N 39°16' W 076°34'0 0.0
2018-Jun-05 10:30N 39°16' W 076°34'0 0.0
2018-Jun-05 10:00N 39°16' W 076°34'0 0.0
2018-Jun-05 09:30N 39°16' W 076°34'0 0.0
2018-Jun-05 09:00N 39°16' W 076°34'0 0.0
2018-Jun-05 08:30N 39°16' W 076°34'0 0.0
2018-Jun-05 08:00N 39°16' W 076°34'0 0.0
2018-Jun-05 07:30N 39°16' W 076°34'0 0.0
2018-Jun-05 07:00N 39°16' W 076°34'0 0.0
2018-Jun-05 06:30N 39°16' W 076°34'0 0.0
2018-Jun-05 06:00N 39°16' W 076°34'0 0.0
2018-Jun-05 05:30N 39°16' W 076°34'0 0.0
2018-Jun-05 05:00N 39°16' W 076°34'0 0.0
2018-Jun-05 04:30N 39°16' W 076°34'0 0.0
2018-Jun-05 04:01N 39°16' W 076°34'0 0.0
2018-Jun-05 03:31N 39°16' W 076°34'0 0.0
2018-Jun-05 03:00N 39°16' W 076°34'0 0.0
2018-Jun-05 02:31N 39°16' W 076°34'0 0.0
2018-Jun-05 02:01N 39°16' W 076°34'0 0.0
2018-Jun-05 01:30N 39°16' W 076°34'0 0.0
2018-Jun-05 01:00N 39°16' W 076°34'0 0.0
2018-Jun-05 00:31N 39°16' W 076°34'0 0.0
2018-Jun-05 00:00N 39°16' W 076°34'0 0.0
2018-Jun-04 23:30N 39°16' W 076°34'0 0.0
2018-Jun-04 23:01N 39°16' W 076°34'0 0.0
2018-Jun-04 22:31N 39°16' W 076°34'0 0.0
2018-Jun-04 22:01N 39°16' W 076°34'0 0.0
2018-Jun-04 21:30N 39°16' W 076°34'0 0.0
2018-Jun-04 21:01N 39°16' W 076°34'0 0.0
2018-Jun-04 20:31N 39°16' W 076°34'0 0.0
2018-Jun-04 20:00N 39°16' W 076°34'0 0.0
2018-Jun-04 19:31N 39°16' W 076°34'0 0.0
2018-Jun-04 19:00N 39°16' W 076°34'0 0.0
2018-Jun-04 18:30N 39°16' W 076°34'0 0.0
2018-Jun-04 18:00N 39°16' W 076°34'0 0.0
2018-Jun-04 17:30N 39°16' W 076°34'0 0.0
2018-Jun-04 17:00N 39°16' W 076°34'0 0.0
2018-Jun-04 16:30N 39°16' W 076°34'0 0.0
2018-Jun-04 16:00N 39°16' W 076°34'0 0.0
2018-Jun-04 15:30N 39°16' W 076°34'0 0.0
2018-Jun-04 15:00N 39°16' W 076°34'0 0.0
2018-Jun-04 14:30N 39°16' W 076°34'0 0.0
2018-Jun-04 14:00N 39°16' W 076°34'0 0.0
2018-Jun-04 13:30N 39°16' W 076°34'0 0.0
2018-Jun-04 13:00N 39°16' W 076°34'0 0.0
2018-Jun-04 12:30N 39°16' W 076°34'0 0.0
2018-Jun-04 12:00N 39°16' W 076°34'0 0.0
2018-Jun-04 11:30N 39°16' W 076°34'0 0.0
2018-Jun-04 11:01N 39°16' W 076°34'3 5.8
2018-Jun-04 10:30N 39°14' W 076°33'5 9.3
2018-Jun-04 10:00N 39°11' W 076°28'5 9.0
2018-Jun-04 09:30N 39°08' W 076°24'5 8.9
2018-Jun-04 08:58N 39°03' W 076°23'4 8.2
2018-Jun-04 08:30N 38°59' W 076°23'4 8.5
2018-Jun-04 08:00N 38°55' W 076°24'4 8.4
2018-Jun-04 07:30N 38°51' W 076°25'4 8.8
2018-Jun-04 07:00N 38°47' W 076°26'  
2018-Jun-01 05:04N 26°57' W 079°52'114.1
2018-Jun-01 05:00N 26°56' W 079°52'3913.7
2018-Jun-01 02:08N 26°17' W 079°56'214.1
2018-Jun-01 02:00N 26°15' W 079°57'714.3
2018-Jun-01 01:30N 26°08' W 079°58'714.5
2018-Jun-01 01:00N 26°01' W 079°58'714.7
2018-Jun-01 00:30N 25°54' W 079°58'714.6
2018-Jun-01 00:00N 25°46' W 079°59'714.6
2018-May-31 23:30N 25°39' W 079°59'714.4
2018-May-31 23:00N 25°32' W 079°60'  
Track history (hours):
 
Tides and Currents Weather Stations Pressure Air Temp Water Temp Dewpoint Dewpoint Depression Visibility Wind Speed Wind Dir Waves Ship Positions

Tug Brendan J Bouchard

Owner: TUG BRENDAN J BOUCHARD CORP, MELVILLE, NY. More information available from US FCC via Universal Licensing System and Coast Guard Vessel Documentation Center.

Last reported at 2018-Jun-10 22:57 UTC. Time now 2018-Jun-20 05:13 UTC.
Position N 25°19' W 080°04'.
Warning: this ship's position is 9 days out of date.

Length 163 m; draft 7 m.

Type: . MMSI: 338631000.

Date/timePositionNaut miles runAvg speedWind from/ knotsBaromVisibWave heightAir tempDewpointWater temp
2018-Jun-10 22:57N 25°19' W 080°04'4 8.4
2018-Jun-10 22:26N 25°24' W 080°03'4 8.8
2018-Jun-10 22:00N 25°27' W 080°02'5 9.2
2018-Jun-10 21:30N 25°32' W 080°02'5 9.8
2018-Jun-10 21:00N 25°37' W 080°02'5 9.7
2018-Jun-10 20:30N 25°42' W 080°02'5 9.9
2018-Jun-10 20:00N 25°47' W 080°01'5 9.3
2018-Jun-10 19:30N 25°51' W 080°01'4 9.1
2018-Jun-10 19:01N 25°56' W 080°01'4 8.9
2018-Jun-10 18:31N 26°00' W 080°00'4 8.8
2018-Jun-10 18:01N 26°05' W 080°00'4 8.7
2018-Jun-10 17:30N 26°09' W 079°60'4 8.3
2018-Jun-10 17:01N 26°13' W 079°60'4 8.2
2018-Jun-10 16:31N 26°17' W 079°59'5 8.2
2018-Jun-10 15:56N 26°22' W 079°59'4 8.2
2018-Jun-10 15:29N 26°26' W 079°59'22 7.6
2018-Jun-10 12:39N 26°47' W 079°60'1 8.1
2018-Jun-10 12:30N 26°48' W 080°00'5 9.4
2018-Jun-10 12:00N 26°53' W 080°00'5 9.8
2018-Jun-10 11:30N 26°58' W 080°01'  
2018-Jun-08 01:52N 34°52' W 075°41'176 9.9
2018-Jun-07 07:57N 37°47' W 076°11'13 9.8
2018-Jun-07 06:38N 37°60' W 076°12'210.2
2018-Jun-07 06:28N 38°01' W 076°13'4610.0
2018-Jun-07 01:52N 38°46' W 076°26'410.2
2018-Jun-07 01:30N 38°50' W 076°26'510.4
2018-Jun-07 01:00N 38°55' W 076°24'510.7
2018-Jun-07 00:31N 38°60' W 076°23'510.3
2018-Jun-07 00:00N 39°05' W 076°24'510.5
2018-Jun-06 23:30N 39°10' W 076°26'510.0
2018-Jun-06 23:00N 39°13' W 076°31'2 4.7
2018-Jun-06 22:30N 39°15' W 076°33'0 0.1
2018-Jun-06 22:00N 39°15' W 076°33'0 0.0
2018-Jun-06 21:31N 39°15' W 076°33'0 0.0
2018-Jun-06 21:00N 39°15' W 076°33'0 0.0
2018-Jun-06 20:30N 39°15' W 076°33'0 0.0
2018-Jun-06 20:00N 39°15' W 076°33'0 0.0
2018-Jun-06 19:29N 39°15' W 076°33'0 0.0
2018-Jun-06 18:59N 39°15' W 076°33'0 0.0
2018-Jun-06 18:26N 39°15' W 076°33'0 0.0
2018-Jun-06 18:00N 39°15' W 076°33'0 0.0
2018-Jun-06 17:29N 39°15' W 076°33'1 2.7
2018-Jun-06 17:00N 39°13' W 076°33'1 1.8
2018-Jun-06 16:27N 39°14' W 076°34'0 0.0
2018-Jun-06 15:57N 39°14' W 076°34'0 0.0
2018-Jun-06 15:30N 39°14' W 076°34'0 0.0
2018-Jun-06 14:33N 39°14' W 076°34'0 0.0
2018-Jun-06 14:03N 39°14' W 076°34'0 0.0
2018-Jun-06 14:00N 39°14' W 076°34'0 0.0
2018-Jun-06 13:30N 39°14' W 076°34'0 0.0
2018-Jun-06 12:57N 39°14' W 076°34'0 0.0
2018-Jun-06 12:30N 39°14' W 076°34'0 0.0
2018-Jun-06 12:00N 39°14' W 076°34'0 0.0
2018-Jun-06 11:30N 39°14' W 076°34'1 2.7
2018-Jun-06 10:59N 39°14' W 076°33'1 1.4
2018-Jun-06 10:30N 39°15' W 076°34'2 3.5
2018-Jun-06 10:00N 39°16' W 076°34'0 0.0
2018-Jun-06 09:30N 39°16' W 076°34'0 0.0
2018-Jun-06 09:00N 39°16' W 076°34'0 0.0
2018-Jun-06 08:30N 39°16' W 076°34'0 0.0
2018-Jun-06 08:00N 39°16' W 076°34'0 0.0
2018-Jun-06 07:30N 39°16' W 076°34'0 0.0
2018-Jun-06 07:00N 39°16' W 076°34'0 0.0
2018-Jun-06 06:30N 39°16' W 076°34'0 0.0
2018-Jun-06 06:00N 39°16' W 076°34'0 0.0
2018-Jun-06 05:30N 39°16' W 076°34'0 0.0
2018-Jun-06 05:00N 39°16' W 076°34'0 0.0
2018-Jun-06 04:30N 39°16' W 076°34'0 0.0
2018-Jun-06 04:00N 39°16' W 076°34'0 0.0
2018-Jun-06 03:30N 39°16' W 076°34'0 0.0
2018-Jun-06 03:00N 39°16' W 076°34'0 0.0
2018-Jun-06 02:30N 39°16' W 076°34'0 0.0
2018-Jun-06 02:00N 39°16' W 076°34'0 0.0
2018-Jun-06 01:30N 39°16' W 076°34'0 0.0
2018-Jun-06 01:00N 39°16' W 076°34'0 0.0
2018-Jun-06 00:30N 39°16' W 076°34'0 0.0
2018-Jun-06 00:00N 39°16' W 076°34'0 0.0
2018-Jun-05 23:30N 39°16' W 076°34'0 0.0
2018-Jun-05 23:00N 39°16' W 076°34'0 0.0
2018-Jun-05 22:30N 39°16' W 076°34'0 0.0
2018-Jun-05 22:00N 39°16' W 076°34'0 0.0
2018-Jun-05 21:30N 39°16' W 076°34'0 0.0
2018-Jun-05 21:00N 39°16' W 076°34'0 0.0
2018-Jun-05 20:30N 39°16' W 076°34'0 0.0
2018-Jun-05 20:00N 39°16' W 076°34'0 0.0
2018-Jun-05 19:30N 39°16' W 076°34'0 0.0
2018-Jun-05 19:00N 39°16' W 076°34'0 0.0
2018-Jun-05 18:30N 39°16' W 076°34'0 0.0
2018-Jun-05 18:00N 39°16' W 076°34'0 0.0
2018-Jun-05 17:30N 39°16' W 076°34'0 0.0
2018-Jun-05 17:00N 39°16' W 076°34'0 0.0
2018-Jun-05 16:30N 39°16' W 076°34'0 0.0
2018-Jun-05 16:00N 39°16' W 076°34'0 0.0
2018-Jun-05 15:30N 39°16' W 076°34'0 0.0
2018-Jun-05 15:00N 39°16' W 076°34'0 0.0
2018-Jun-05 14:30N 39°16' W 076°34'0 0.0
2018-Jun-05 14:00N 39°16' W 076°34'0 0.0
2018-Jun-05 13:30N 39°16' W 076°34'0 0.0
2018-Jun-05 13:00N 39°16' W 076°34'0 0.0
2018-Jun-05 12:30N 39°16' W 076°34'0 0.0
2018-Jun-05 12:00N 39°16' W 076°34'0 0.0
2018-Jun-05 11:30N 39°16' W 076°34'0 0.0
2018-Jun-05 11:00N 39°16' W 076°34'0 0.0
2018-Jun-05 10:30N 39°16' W 076°34'0 0.0
2018-Jun-05 10:00N 39°16' W 076°34'0 0.0
2018-Jun-05 09:30N 39°16' W 076°34'0 0.0
2018-Jun-05 09:00N 39°16' W 076°34'0 0.0
2018-Jun-05 08:30N 39°16' W 076°34'0 0.0
2018-Jun-05 08:00N 39°16' W 076°34'0 0.0
2018-Jun-05 07:30N 39°16' W 076°34'0 0.0
2018-Jun-05 07:00N 39°16' W 076°34'0 0.0
2018-Jun-05 06:30N 39°16' W 076°34'0 0.0
2018-Jun-05 06:00N 39°16' W 076°34'0 0.0
2018-Jun-05 05:30N 39°16' W 076°34'0 0.0
2018-Jun-05 05:00N 39°16' W 076°34'0 0.0
2018-Jun-05 04:30N 39°16' W 076°34'0 0.0
2018-Jun-05 04:01N 39°16' W 076°34'0 0.0
2018-Jun-05 03:31N 39°16' W 076°34'0 0.0
2018-Jun-05 03:00N 39°16' W 076°34'0 0.0
2018-Jun-05 02:31N 39°16' W 076°34'0 0.0
2018-Jun-05 02:01N 39°16' W 076°34'0 0.0
2018-Jun-05 01:30N 39°16' W 076°34'0 0.0
2018-Jun-05 01:00N 39°16' W 076°34'0 0.0
2018-Jun-05 00:31N 39°16' W 076°34'0 0.0
2018-Jun-05 00:00N 39°16' W 076°34'0 0.0
2018-Jun-04 23:30N 39°16' W 076°34'0 0.0
2018-Jun-04 23:01N 39°16' W 076°34'0 0.0
2018-Jun-04 22:31N 39°16' W 076°34'0 0.0
2018-Jun-04 22:01N 39°16' W 076°34'0 0.0
2018-Jun-04 21:30N 39°16' W 076°34'0 0.0
2018-Jun-04 21:01N 39°16' W 076°34'0 0.0
2018-Jun-04 20:31N 39°16' W 076°34'0 0.0
2018-Jun-04 20:00N 39°16' W 076°34'0 0.0
2018-Jun-04 19:31N 39°16' W 076°34'0 0.0
2018-Jun-04 19:00N 39°16' W 076°34'0 0.0
2018-Jun-04 18:30N 39°16' W 076°34'0 0.0
2018-Jun-04 18:00N 39°16' W 076°34'0 0.0
2018-Jun-04 17:30N 39°16' W 076°34'0 0.0
2018-Jun-04 17:00N 39°16' W 076°34'0 0.0
2018-Jun-04 16:30N 39°16' W 076°34'0 0.0
2018-Jun-04 16:00N 39°16' W 076°34'0 0.0
2018-Jun-04 15:30N 39°16' W 076°34'0 0.0
2018-Jun-04 15:00N 39°16' W 076°34'0 0.0
2018-Jun-04 14:30N 39°16' W 076°34'0 0.0
2018-Jun-04 14:00N 39°16' W 076°34'0 0.0
2018-Jun-04 13:30N 39°16' W 076°34'0 0.0
2018-Jun-04 13:00N 39°16' W 076°34'0 0.0
2018-Jun-04 12:30N 39°16' W 076°34'0 0.0
2018-Jun-04 12:00N 39°16' W 076°34'0 0.0
2018-Jun-04 11:30N 39°16' W 076°34'0 0.0
2018-Jun-04 11:01N 39°16' W 076°34'3 5.8
2018-Jun-04 10:30N 39°14' W 076°33'5 9.3
2018-Jun-04 10:00N 39°11' W 076°28'5 9.0
2018-Jun-04 09:30N 39°08' W 076°24'5 8.9
2018-Jun-04 08:58N 39°03' W 076°23'4 8.2
2018-Jun-04 08:30N 38°59' W 076°23'4 8.5
2018-Jun-04 08:00N 38°55' W 076°24'4 8.4
2018-Jun-04 07:30N 38°51' W 076°25'4 8.8
2018-Jun-04 07:00N 38°47' W 076°26'  
2018-Jun-01 05:04N 26°57' W 079°52'114.1
2018-Jun-01 05:00N 26°56' W 079°52'3913.7
2018-Jun-01 02:08N 26°17' W 079°56'214.1
2018-Jun-01 02:00N 26°15' W 079°57'714.3
2018-Jun-01 01:30N 26°08' W 079°58'714.5
2018-Jun-01 01:00N 26°01' W 079°58'714.7
2018-Jun-01 00:30N 25°54' W 079°58'714.6
2018-Jun-01 00:00N 25°46' W 079°59'714.6
2018-May-31 23:30N 25°39' W 079°59'714.4
2018-May-31 23:00N 25°32' W 079°60'  

Dump ship's entire track history